createdAt,value
2022-12-08T00:00:56.677Z,100518.60
2022-12-08T00:03:29.898Z,100515.00
2022-12-08T00:06:20.978Z,100512.80
2022-12-08T00:09:11.317Z,100512.20
2022-12-08T00:11:43.848Z,100509.00
2022-12-08T00:14:16.389Z,100508.40
2022-12-08T00:16:49.223Z,100506.20
2022-12-08T00:19:22.059Z,100503.20
2022-12-08T00:21:55.721Z,100506.20
2022-12-08T00:24:34.733Z,100506.00
2022-12-08T00:27:07.980Z,100504.40
2022-12-08T00:29:41.234Z,100511.00
2022-12-08T00:32:13.857Z,100503.00
2022-12-08T00:34:46.564Z,100508.60
2022-12-08T00:37:19.049Z,100512.60
2022-12-08T00:39:51.731Z,100512.40
2022-12-08T00:42:24.203Z,100513.20
2022-12-08T00:44:56.688Z,100511.20
2022-12-08T00:47:29.944Z,100513.20
2022-12-08T00:50:02.783Z,100510.60
2022-12-08T00:52:35.541Z,100512.00
2022-12-08T00:55:10.186Z,100511.80
2022-12-08T00:57:42.711Z,100511.00
2022-12-08T01:00:17.594Z,100509.20
2022-12-08T01:02:50.162Z,100514.00
2022-12-08T01:05:22.917Z,100509.40
2022-12-08T01:07:55.417Z,100507.80
2022-12-08T01:10:28.103Z,100511.00
2022-12-08T01:13:00.925Z,100513.60
2022-12-08T01:15:33.382Z,100510.00
2022-12-08T01:18:05.987Z,100510.20
2022-12-08T01:20:38.399Z,100511.80
2022-12-08T01:23:10.979Z,100506.00
2022-12-08T01:25:43.765Z,100509.20
2022-12-08T01:28:16.425Z,100504.40
2022-12-08T01:30:49.033Z,100499.00
2022-12-08T01:33:21.534Z,100496.40
2022-12-08T01:35:55.506Z,100492.60
2022-12-08T01:38:27.993Z,100489.60
2022-12-08T01:41:00.736Z,100491.20
2022-12-08T01:44:02.378Z,100486.00
2022-12-08T01:46:37.562Z,100487.60
2022-12-08T01:49:15.206Z,100485.80
2022-12-08T01:51:55.862Z,100480.40
2022-12-08T01:54:43.037Z,100478.80
2022-12-08T01:57:21.782Z,100484.20
2022-12-08T02:00:00.513Z,100481.00
2022-12-08T02:02:41.029Z,100476.40
2022-12-08T02:05:15.168Z,100474.40
2022-12-08T02:07:49.715Z,100476.60
2022-12-08T02:10:29.612Z,100479.00
2022-12-08T02:13:04.496Z,100485.40
2022-12-08T02:15:50.201Z,100480.20
2022-12-08T02:18:50.500Z,100472.60
2022-12-08T02:21:39.310Z,100470.40
2022-12-08T02:24:24.577Z,100467.60
2022-12-08T02:27:42.502Z,100471.00
2022-12-08T02:30:45.071Z,100460.40
2022-12-08T02:33:56.698Z,100454.80
2022-12-08T02:36:38.491Z,100445.40
2022-12-08T02:39:28.346Z,100442.00
2022-12-08T02:42:13.571Z,100437.40
2022-12-08T02:44:54.100Z,100440.20
2022-12-08T02:47:30.737Z,100433.20
2022-12-08T02:50:03.960Z,100434.80
2022-12-08T02:52:48.672Z,100438.20
2022-12-08T02:55:29.728Z,100440.40
2022-12-08T02:58:47.889Z,100442.60
2022-12-08T03:01:41.656Z,100440.00
2022-12-08T03:04:29.381Z,100440.20
2022-12-08T03:07:08.478Z,100438.60
2022-12-08T03:09:47.584Z,100439.20
2022-12-08T03:12:27.534Z,100431.80
2022-12-08T03:15:05.999Z,100431.20
2022-12-08T03:17:42.465Z,100428.80
2022-12-08T03:20:22.725Z,100424.00
2022-12-08T03:23:00.268Z,100417.80
2022-12-08T03:25:39.725Z,100415.20
2022-12-08T03:28:13.006Z,100414.00
2022-12-08T03:30:50.100Z,100409.60
2022-12-08T03:33:28.197Z,100412.00
2022-12-08T03:36:03.577Z,100411.80
2022-12-08T03:38:44.877Z,100410.40
2022-12-08T03:41:20.512Z,100410.00
2022-12-08T03:43:55.913Z,100404.60
2022-12-08T03:46:31.742Z,100407.40
2022-12-08T03:49:04.426Z,100403.80
2022-12-08T03:51:36.866Z,100405.20
2022-12-08T03:54:09.562Z,100414.60
2022-12-08T03:56:43.677Z,100415.60
2022-12-08T03:59:16.911Z,100414.20
2022-12-08T04:01:49.474Z,100413.80
2022-12-08T04:04:21.971Z,100421.80
2022-12-08T04:06:54.566Z,100421.80
2022-12-08T04:09:27.657Z,100419.80
2022-12-08T04:12:00.122Z,100418.00
2022-12-08T04:14:33.039Z,100414.80
2022-12-08T04:17:05.681Z,100414.40
2022-12-08T04:19:38.115Z,100422.20
2022-12-08T04:22:10.619Z,100414.20
2022-12-08T04:24:43.170Z,100412.60
2022-12-08T04:27:15.563Z,100413.40
2022-12-08T04:29:48.253Z,100410.20
2022-12-08T04:32:20.830Z,100410.00
2022-12-08T04:34:53.506Z,100412.40
2022-12-08T04:37:26.260Z,100406.60
2022-12-08T04:39:58.842Z,100402.20
2022-12-08T04:42:31.416Z,100398.40
2022-12-08T04:45:04.095Z,100391.80
2022-12-08T04:47:36.776Z,100387.00
2022-12-08T04:50:11.769Z,100383.00
2022-12-08T04:52:44.323Z,100384.20
2022-12-08T04:55:16.905Z,100382.60
2022-12-08T04:57:49.925Z,100388.40
2022-12-08T05:00:24.166Z,100395.80
2022-12-08T05:02:57.306Z,100387.00
2022-12-08T05:05:30.044Z,100387.00
2022-12-08T05:08:02.639Z,100396.00
2022-12-08T05:10:35.369Z,100400.20
2022-12-08T05:13:07.740Z,100403.20
2022-12-08T05:15:40.232Z,100410.60
2022-12-08T05:18:13.607Z,100411.20
2022-12-08T05:20:45.974Z,100412.20
2022-12-08T05:23:18.842Z,100412.40
2022-12-08T05:25:51.826Z,100418.60
2022-12-08T05:28:41.738Z,100416.60
2022-12-08T05:31:17.198Z,100412.60
2022-12-08T05:33:52.222Z,100413.20
2022-12-08T05:36:25.795Z,100413.00
2022-12-08T05:39:01.450Z,100410.20
2022-12-08T05:41:34.278Z,100413.00
2022-12-08T05:44:07.501Z,100415.00
2022-12-08T05:46:40.413Z,100404.20
2022-12-08T05:49:13.188Z,100408.40
2022-12-08T05:51:45.767Z,100408.00
2022-12-08T05:54:18.248Z,100407.80
2022-12-08T05:56:50.618Z,100400.60
2022-12-08T05:59:23.218Z,100397.40
2022-12-08T06:01:56.080Z,100391.80
2022-12-08T06:04:28.577Z,100386.20
2022-12-08T06:07:01.792Z,100387.60
2022-12-08T06:09:34.589Z,100386.00
2022-12-08T06:12:08.249Z,100378.40
2022-12-08T06:14:40.951Z,100379.80
2022-12-08T06:17:13.895Z,100381.00
2022-12-08T06:19:46.339Z,100381.20
2022-12-08T06:22:19.056Z,100382.60
2022-12-08T06:24:51.756Z,100381.00
2022-12-08T06:27:24.309Z,100378.60
2022-12-08T06:29:57.812Z,100378.80
2022-12-08T06:32:30.268Z,100384.20
2022-12-08T06:35:03.081Z,100383.00
2022-12-08T06:37:35.750Z,100384.20
2022-12-08T06:40:11.709Z,100384.20
2022-12-08T06:42:47.395Z,100391.40
2022-12-08T06:45:21.609Z,100394.20
2022-12-08T06:47:54.118Z,100384.40
2022-12-08T06:50:26.743Z,100385.00
2022-12-08T06:53:05.176Z,100389.00
2022-12-08T06:58:30.992Z,100383.40
2022-12-08T07:01:09.887Z,100388.00
2022-12-08T07:03:44.403Z,100394.80
2022-12-08T07:06:23.539Z,100394.00
2022-12-08T07:08:55.986Z,100394.80
2022-12-08T07:11:28.457Z,100399.60
2022-12-08T07:14:01.321Z,100403.80
2022-12-08T07:16:33.934Z,100402.80
2022-12-08T07:19:06.561Z,100402.40
2022-12-08T07:21:39.015Z,100408.60
2022-12-08T07:24:12.772Z,100407.80
2022-12-08T07:26:45.600Z,100405.40
2022-12-08T07:29:23.014Z,100404.60
2022-12-08T07:31:58.383Z,100400.60
2022-12-08T07:34:31.036Z,100399.60
2022-12-08T07:37:03.634Z,100400.40
2022-12-08T07:39:36.156Z,100394.40
2022-12-08T07:42:09.106Z,100396.40
2022-12-08T07:44:42.635Z,100387.20
2022-12-08T07:47:15.158Z,100394.20
2022-12-08T07:49:47.739Z,100394.00
2022-12-08T07:52:20.253Z,100389.40
2022-12-08T07:54:53.398Z,100392.80
2022-12-08T07:57:25.801Z,100394.00
2022-12-08T07:59:58.350Z,100389.20
2022-12-08T08:02:30.988Z,100387.20
2022-12-08T08:05:04.473Z,100381.00
2022-12-08T08:07:37.573Z,100383.40
2022-12-08T08:10:13.708Z,100377.80
2022-12-08T08:12:46.308Z,100375.00
2022-12-08T08:15:21.475Z,100375.20
2022-12-08T08:17:55.939Z,100371.80
2022-12-08T08:20:28.802Z,100372.00
2022-12-08T08:23:01.281Z,100361.20
2022-12-08T08:25:33.891Z,100357.20
2022-12-08T08:28:06.471Z,100344.00
2022-12-08T08:30:39.012Z,100347.80
2022-12-08T08:33:11.902Z,100341.00
2022-12-08T08:35:44.485Z,100333.80
2022-12-08T08:38:17.147Z,100326.00
2022-12-08T08:40:49.683Z,100318.80
2022-12-08T08:43:37.741Z,100311.40
2022-12-08T08:46:11.472Z,100314.80
2022-12-08T08:48:44.162Z,100314.60
2022-12-08T08:51:17.867Z,100325.20
2022-12-08T08:53:50.426Z,100323.20
2022-12-08T08:56:23.453Z,100319.00
2022-12-08T08:58:57.449Z,100316.80
2022-12-08T09:01:31.655Z,100326.60
2022-12-08T09:04:04.392Z,100335.40
2022-12-08T09:06:37.266Z,100331.60
2022-12-08T09:09:10.396Z,100321.60
2022-12-08T09:11:43.001Z,100329.00
2022-12-08T09:14:17.215Z,100318.60
2022-12-08T09:16:49.617Z,100318.60
2022-12-08T09:19:22.294Z,100317.00
2022-12-08T09:21:54.916Z,100315.40
2022-12-08T09:24:27.357Z,100313.60
2022-12-08T09:26:59.894Z,100313.20
2022-12-08T09:29:36.190Z,100318.80
2022-12-08T09:32:10.633Z,100325.80
2022-12-08T09:34:45.377Z,100329.20
2022-12-08T09:37:21.717Z,100310.60
2022-12-08T09:39:54.254Z,100324.60
2022-12-08T09:42:39.923Z,100322.00
2022-12-08T09:45:18.294Z,100336.40
2022-12-08T09:48:02.196Z,100341.20
2022-12-08T09:50:40.564Z,100339.40
2022-12-08T09:53:20.645Z,100339.00
2022-12-08T09:55:57.445Z,100339.40
2022-12-08T09:58:44.408Z,100352.80
2022-12-08T10:01:17.391Z,100356.80
2022-12-08T10:03:50.362Z,100352.60
2022-12-08T10:06:33.305Z,100356.20
2022-12-08T10:09:27.022Z,100360.40
2022-12-08T10:12:06.848Z,100354.60
2022-12-08T10:14:44.229Z,100355.60
2022-12-08T10:17:24.845Z,100353.20
2022-12-08T10:20:05.368Z,100350.00
2022-12-08T10:22:44.552Z,100346.60
2022-12-08T10:25:24.761Z,100347.80
2022-12-08T10:27:59.601Z,100347.80
2022-12-08T10:30:34.467Z,100343.80
2022-12-08T10:33:10.931Z,100352.00
2022-12-08T10:35:56.395Z,100354.20
2022-12-08T10:38:34.072Z,100346.00
2022-12-08T10:41:14.054Z,100341.80
2022-12-08T10:43:50.883Z,100337.60
2022-12-08T10:46:26.519Z,100338.00
2022-12-08T10:49:13.582Z,100334.40
2022-12-08T10:51:46.732Z,100333.60
2022-12-08T10:54:35.853Z,100320.60
2022-12-08T10:57:20.967Z,100320.80
2022-12-08T10:59:57.155Z,100310.60
2022-12-08T11:02:29.728Z,100303.20
2022-12-08T11:05:03.265Z,100287.00
2022-12-08T11:07:36.703Z,100282.40
2022-12-08T11:10:20.716Z,100272.60
2022-12-08T11:12:53.488Z,100282.40
2022-12-08T11:15:26.521Z,100275.40
2022-12-08T11:18:12.075Z,100287.00
2022-12-08T11:20:45.961Z,100289.80
2022-12-08T11:23:28.855Z,100292.00
2022-12-08T11:26:12.997Z,100297.80
2022-12-08T11:28:46.282Z,100296.60
2022-12-08T11:31:31.720Z,100297.20
2022-12-08T11:34:06.799Z,100298.80
2022-12-08T11:36:40.797Z,100301.40
2022-12-08T11:39:15.786Z,100300.00
2022-12-08T11:41:49.936Z,100291.40
2022-12-08T11:44:35.196Z,100288.00
2022-12-08T11:47:13.795Z,100286.60
2022-12-08T11:49:48.487Z,100289.60
2022-12-08T11:52:29.092Z,100292.00
2022-12-08T11:55:18.227Z,100290.40
2022-12-08T11:57:51.829Z,100286.80
2022-12-08T12:00:25.390Z,100284.20
2022-12-08T12:03:06.077Z,100286.80
2022-12-08T12:06:13.036Z,100283.80
2022-12-08T12:09:05.622Z,100281.40
2022-12-08T12:12:09.125Z,100283.00
2022-12-08T12:15:18.366Z,100278.20
2022-12-08T12:17:56.430Z,100282.20
2022-12-08T12:20:35.054Z,100272.80
2022-12-08T12:23:17.022Z,100274.20
2022-12-08T12:26:02.237Z,100267.00
2022-12-08T12:28:49.828Z,100262.80
2022-12-08T12:31:26.831Z,100257.00
2022-12-08T12:34:13.717Z,100256.00
2022-12-08T12:36:56.680Z,100252.20
2022-12-08T12:39:35.309Z,100243.20
2022-12-08T12:42:09.085Z,100246.60
2022-12-08T12:44:47.352Z,100243.00
2022-12-08T12:47:56.299Z,100236.20
2022-12-08T12:50:47.421Z,100231.80
2022-12-08T12:53:53.459Z,100233.60
2022-12-08T12:56:56.623Z,100229.20
2022-12-08T12:59:51.627Z,100225.00
2022-12-08T13:02:34.352Z,100228.40
2022-12-08T13:05:17.524Z,100224.60
2022-12-08T13:07:57.088Z,100216.20
2022-12-08T13:10:33.662Z,100223.40
2022-12-08T13:13:20.041Z,100222.20
2022-12-08T13:16:09.998Z,100219.80
2022-12-08T13:18:53.584Z,100215.40
2022-12-08T13:21:33.410Z,100219.80
2022-12-08T13:24:33.435Z,100212.00
2022-12-08T13:27:52.585Z,100203.00
2022-12-08T13:30:47.980Z,100211.80
2022-12-08T13:33:27.129Z,100221.00
2022-12-08T13:36:12.887Z,100221.60
2022-12-08T13:38:52.937Z,100223.80
2022-12-08T13:41:37.037Z,100215.60
2022-12-08T13:47:33.927Z,100213.20
2022-12-08T13:51:51.212Z,100213.00
2022-12-08T13:53:49.676Z,100213.20
2022-12-08T13:59:33.559Z,100203.80
2022-12-08T14:02:25.360Z,100209.40
2022-12-08T14:07:55.915Z,100205.80
2022-12-08T14:10:33.551Z,100205.60
2022-12-08T14:13:12.480Z,100205.80
2022-12-08T14:15:45.079Z,100216.60
2022-12-08T14:18:30.223Z,100209.80
2022-12-08T14:21:21.782Z,100210.00
2022-12-08T14:23:54.483Z,100203.80
2022-12-08T14:26:27.233Z,100193.60
2022-12-08T14:29:00.267Z,100200.00
2022-12-08T14:31:33.291Z,100200.00
2022-12-08T14:34:06.148Z,100206.80
2022-12-08T14:36:38.685Z,100205.20
2022-12-08T14:39:12.461Z,100213.00
2022-12-08T14:42:01.893Z,100219.20
2022-12-08T14:44:39.539Z,100218.60
2022-12-08T14:47:20.968Z,100217.60
2022-12-08T14:49:53.592Z,100214.40
2022-12-08T14:52:26.582Z,100212.20
2022-12-08T14:55:00.446Z,100221.40
2022-12-08T14:57:38.974Z,100223.00
2022-12-08T15:00:25.493Z,100224.60
2022-12-08T15:02:58.928Z,100225.00
2022-12-08T15:05:39.268Z,100223.20
2022-12-08T15:08:13.986Z,100230.20
2022-12-08T15:10:48.325Z,100236.60
2022-12-08T15:13:27.544Z,100233.60
2022-12-08T15:16:02.847Z,100237.40
2022-12-08T15:18:42.329Z,100244.20
2022-12-08T15:21:15.730Z,100241.60
2022-12-08T15:23:52.264Z,100249.80
2022-12-08T15:26:27.962Z,100249.60
2022-12-08T15:29:10.787Z,100252.00
2022-12-08T15:31:43.289Z,100251.60
2022-12-08T15:34:16.103Z,100255.80
2022-12-08T15:36:50.358Z,100254.60
2022-12-08T15:39:34.955Z,100247.00
2022-12-08T15:42:13.663Z,100255.20
2022-12-08T15:44:46.924Z,100253.20
2022-12-08T15:47:23.651Z,100249.60
2022-12-08T15:49:56.750Z,100253.40
2022-12-08T15:52:29.666Z,100254.80
2022-12-08T15:55:02.101Z,100258.20
2022-12-08T15:58:17.413Z,100266.80
2022-12-08T16:00:52.825Z,100263.40
2022-12-08T16:09:30.674Z,100254.40
2022-12-08T16:12:21.716Z,100256.80
2022-12-08T16:17:46.889Z,100253.20
2022-12-08T16:20:28.224Z,100259.40
2022-12-08T16:23:26.782Z,100265.80
2022-12-08T16:28:56.340Z,100271.60
2022-12-08T16:31:29.109Z,100267.20
2022-12-08T16:34:01.809Z,100260.60
2022-12-08T16:36:34.896Z,100262.20
2022-12-08T16:39:08.667Z,100262.80
2022-12-08T16:41:58.803Z,100256.60
2022-12-08T16:44:31.270Z,100257.60
2022-12-08T16:47:11.302Z,100257.80
2022-12-08T16:49:44.025Z,100246.40
2022-12-08T16:52:17.671Z,100238.40
2022-12-08T16:54:50.188Z,100242.60
2022-12-08T16:57:22.858Z,100239.80
2022-12-08T16:59:55.371Z,100234.80
2022-12-08T17:02:27.831Z,100236.00
2022-12-08T17:05:00.326Z,100236.40
2022-12-08T17:07:33.133Z,100237.60
2022-12-08T17:10:08.639Z,100233.60
2022-12-08T17:12:41.747Z,100240.20
2022-12-08T17:15:21.431Z,100244.20
2022-12-08T17:17:54.742Z,100250.40
2022-12-08T17:20:32.495Z,100251.40
2022-12-08T17:23:04.926Z,100260.20
2022-12-08T17:25:37.701Z,100264.60
2022-12-08T17:28:10.393Z,100267.00
2022-12-08T17:30:42.836Z,100265.20
2022-12-08T17:33:15.384Z,100271.60
2022-12-08T17:35:54.870Z,100266.40
2022-12-08T17:38:28.428Z,100269.20
2022-12-08T17:41:07.554Z,100268.20
2022-12-08T17:43:40.489Z,100266.20
2022-12-08T17:46:17.638Z,100266.80
2022-12-08T17:48:50.664Z,100268.40
2022-12-08T17:51:23.380Z,100262.20
2022-12-08T17:53:56.428Z,100270.80
2022-12-08T17:56:29.177Z,100276.80
2022-12-08T17:59:03.393Z,100274.60
2022-12-08T18:01:36.187Z,100278.80
2022-12-08T18:04:11.084Z,100269.40
2022-12-08T18:06:44.169Z,100260.60
2022-12-08T18:09:16.954Z,100260.20
2022-12-08T18:11:50.219Z,100262.60
2022-12-08T18:14:22.895Z,100269.20
2022-12-08T18:16:55.718Z,100275.80
2022-12-08T18:19:28.507Z,100267.60
2022-12-08T18:22:01.074Z,100270.80
2022-12-08T18:24:33.696Z,100278.20
2022-12-08T18:27:06.388Z,100280.20
2022-12-08T18:29:38.804Z,100278.80
2022-12-08T18:32:11.726Z,100280.40
2022-12-08T18:34:44.462Z,100282.20
2022-12-08T18:37:17.011Z,100279.80
2022-12-08T18:39:51.024Z,100265.60
2022-12-08T18:42:28.241Z,100270.00
2022-12-08T18:45:04.352Z,100275.00
2022-12-08T18:47:40.661Z,100278.60
2022-12-08T18:50:15.249Z,100276.00
2022-12-08T18:52:49.568Z,100281.40
2022-12-08T18:55:22.518Z,100287.20
2022-12-08T18:57:55.118Z,100284.40
2022-12-08T19:00:27.879Z,100290.20
2022-12-08T19:03:00.455Z,100285.40
2022-12-08T19:05:33.084Z,100280.40
2022-12-08T19:08:06.123Z,100293.40
2022-12-08T19:10:40.626Z,100292.80
2022-12-08T19:13:14.119Z,100278.60
2022-12-08T19:15:46.838Z,100274.00
2022-12-08T19:18:19.502Z,100273.80
2022-12-08T19:20:56.791Z,100275.80
2022-12-08T19:23:29.533Z,100272.00
2022-12-08T19:26:02.103Z,100273.60
2022-12-08T19:28:36.093Z,100279.60
2022-12-08T19:31:12.804Z,100275.20
2022-12-08T19:33:45.444Z,100273.60
2022-12-08T19:36:21.635Z,100267.00
2022-12-08T19:39:12.331Z,100275.00
2022-12-08T19:42:02.413Z,100271.60
2022-12-08T19:44:53.647Z,100264.00
2022-12-08T19:47:28.276Z,100275.40
2022-12-08T19:50:14.592Z,100280.60
2022-12-08T19:52:47.996Z,100285.40
2022-12-08T19:55:21.303Z,100279.40
2022-12-08T19:57:54.855Z,100278.60
2022-12-08T20:00:27.549Z,100277.80
2022-12-08T20:03:01.835Z,100277.20
2022-12-08T20:05:36.979Z,100268.60
2022-12-08T20:08:10.180Z,100266.40
2022-12-08T20:10:45.593Z,100266.20
2022-12-08T20:13:35.399Z,100268.60
2022-12-08T20:16:09.939Z,100269.60
2022-12-08T20:18:44.704Z,100265.60
2022-12-08T20:21:17.654Z,100263.20
2022-12-08T20:23:50.781Z,100255.80
2022-12-08T20:26:25.457Z,100253.40
2022-12-08T20:28:58.633Z,100251.20
2022-12-08T20:31:34.564Z,100246.20
2022-12-08T20:34:07.310Z,100251.80
2022-12-08T20:36:39.882Z,100258.80
2022-12-08T20:39:16.655Z,100254.60
2022-12-08T20:41:50.093Z,100251.00
2022-12-08T20:44:22.569Z,100253.00
2022-12-08T20:46:55.442Z,100250.60
2022-12-08T20:49:34.235Z,100248.80
2022-12-08T20:52:07.980Z,100251.20
2022-12-08T20:54:41.948Z,100248.60
2022-12-08T20:57:14.502Z,100249.00
2022-12-08T20:59:47.203Z,100250.20
2022-12-08T21:02:19.802Z,100254.20
2022-12-08T21:04:52.851Z,100252.20
2022-12-08T21:07:25.793Z,100256.20
2022-12-08T21:09:58.314Z,100255.20
2022-12-08T21:12:32.300Z,100249.60
2022-12-08T21:15:07.409Z,100244.40
2022-12-08T21:17:40.408Z,100245.60
2022-12-08T21:20:14.513Z,100246.20
2022-12-08T21:22:47.052Z,100243.00
2022-12-08T21:25:19.813Z,100251.00
2022-12-08T21:27:52.559Z,100247.00
2022-12-08T21:30:25.442Z,100248.20
2022-12-08T21:32:58.404Z,100243.20
2022-12-08T21:35:31.498Z,100250.20
2022-12-08T21:38:05.247Z,100254.60
2022-12-08T21:40:38.474Z,100261.20
2022-12-08T21:43:11.260Z,100268.80
2022-12-08T21:45:43.988Z,100272.40
2022-12-08T21:48:16.551Z,100268.40
2022-12-08T21:50:49.359Z,100266.00
2022-12-08T21:53:22.566Z,100268.00
2022-12-08T21:55:55.509Z,100269.40
2022-12-08T21:58:28.193Z,100270.20
2022-12-08T22:01:05.694Z,100270.60
2022-12-08T22:03:39.399Z,100276.40
2022-12-08T22:06:15.211Z,100282.60
2022-12-08T22:08:48.348Z,100289.60
2022-12-08T22:11:21.498Z,100297.80
2022-12-08T22:13:54.172Z,100295.40
2022-12-08T22:16:27.332Z,100295.40
2022-12-08T22:19:00.757Z,100293.80
2022-12-08T22:21:33.585Z,100289.00
2022-12-08T22:24:06.737Z,100290.00
2022-12-08T22:26:39.315Z,100289.40
2022-12-08T22:29:11.907Z,100284.80
2022-12-08T22:31:45.239Z,100284.60
2022-12-08T22:34:17.710Z,100284.40
2022-12-08T22:36:50.261Z,100287.00
2022-12-08T22:39:22.915Z,100291.60
2022-12-08T22:41:55.603Z,100289.00
2022-12-08T22:44:28.198Z,100283.00
2022-12-08T22:47:00.898Z,100279.40
2022-12-08T22:49:34.324Z,100284.00
2022-12-08T22:52:07.664Z,100284.20
2022-12-08T22:54:40.509Z,100290.20
2022-12-08T22:57:13.226Z,100282.40
2022-12-08T22:59:46.038Z,100284.00
2022-12-08T23:02:18.587Z,100279.40
2022-12-08T23:04:51.859Z,100275.40
2022-12-08T23:07:24.343Z,100269.40
2022-12-08T23:09:57.558Z,100269.20
2022-12-08T23:12:30.145Z,100267.60
2022-12-08T23:15:03.158Z,100265.60
2022-12-08T23:17:36.020Z,100259.20
2022-12-08T23:20:11.861Z,100256.40
2022-12-08T23:22:44.655Z,100249.80
2022-12-08T23:25:18.536Z,100248.60
2022-12-08T23:27:51.522Z,100249.20
2022-12-08T23:30:24.451Z,100241.80
2022-12-08T23:33:00.605Z,100239.80
2022-12-08T23:35:33.206Z,100238.80
2022-12-08T23:38:05.586Z,100231.80
2022-12-08T23:40:38.031Z,100230.00
2022-12-08T23:43:10.699Z,100227.40
2022-12-08T23:45:43.443Z,100216.00
2022-12-08T23:48:16.285Z,100213.20
2022-12-08T23:50:49.526Z,100205.00
2022-12-08T23:53:22.048Z,100203.40
2022-12-08T23:56:01.872Z,100201.40
2022-12-08T23:58:36.302Z,100200.00
